Terminal Aerodrome Forecast
Issued by NWS Wilmington, OH

Current Version | Previous Version | Graphics & Text | Print | Product List | Glossary On
Versions: 1 2 3 4 5 6 7 8 9 10 11 12 13 14 15 16 17 18 19 20 21 22 23 24
000
FTUS41 KILN 270900 AAA
TAFDAY
TAF AMD
KDAY 270957Z 2710/2806 33008KT 5SM BR BKN012 OVC025
     FM271200 32006KT P6SM OVC025
     FM271500 32011KT P6SM OVC025
     FM271800 30012G20KT P6SM VCSH OVC035
     FM272300 29010KT P6SM VCSH OVC025=

USA.gov is the U.S. government's official web portal to all federal, state and local government web resources and services.